• Join FlightAware (Why Join?)
  • Login
  • US Flag 
10:43PM EST


 

Airport Tracker/Info


-or-


 

Live Flight TrackerFlight Track Log ✈ LXJ549 ✈ 13-Jul-2013 ✈ KBFI - KSUN

Flight Track Log - Related Links

Times and Time Zones

All times are in EDT time to prevent confusion due to time zone crossing. See the LXJ549 flight status page for this flight to view local times or setup timezone preferences in your user account.

Time Position Orientation Groundspeed Altitude Reporting Facility
EDT Latitude Longitude Course Direction KTS MPH feet Rate Location/Type
06:51PM 47.5461 -122.3181 323° Northwest 165 190 1,300  Level Seattle Center
06:51PM 47.5683 -122.3428 323° Northwest 178 205 2,000 900 Climbing Seattle Center
06:52PM 47.6142 -122.3956 322° Northwest 208 239 2,700 900 Climbing Seattle Center
06:53PM 47.5967 -122.4781 253° West 230 265 3,900 2,160 Climbing Seattle Center
06:54PM 47.5508 -122.5700 234° Southwest 259 298 7,100 3,360 Climbing Seattle Center
06:55PM 47.4778 -122.5786 185° South 279 321 10,800 3,540 Climbing Seattle Center
06:56PM 47.4003 -122.5433 163° South 301 346 14,400 2,880 Climbing Seattle Center
06:57PM 47.2969 -122.5236 173° South 356 410 16,700 2,160 Climbing Seattle Center
06:58PM 47.2011 -122.5061 173° South 386 444 18,800 2,700 Climbing Seattle Center
06:59PM 47.1394 -122.3722 124° Southeast 414 476 22,200 3,360 Climbing Seattle Center
07:00PM 47.0856 -122.2272 119° Southeast 410 472 25,700 3,540 Climbing Seattle Center
07:01PM 47.0197 -122.0650 121° Southeast 396 456 29,500 2,880 Climbing Seattle Center
07:02PM 46.9633 -121.9286 121° Southeast 395 455 31,600 1,620 Climbing Seattle Center
07:03PM 46.9050 -121.7869 121° Southeast 409 471 32,900 1,260 Climbing Seattle Center
07:04PM 46.8417 -121.6350 121° Southeast 437 503 34,200 1,320 Climbing Seattle Center
07:05PM 46.7797 -121.4867 121° Southeast 449 517 35,700 1,500 Climbing Seattle Center
07:06PM 46.7147 -121.3292 121° Southeast 453 521 37,300 1,500 Climbing Seattle Center
07:07PM 46.6486 -121.1753 122° Southeast 451 519 38,800 1,140 Climbing Seattle Center
07:08PM 46.5833 -121.0236 122° Southeast 443 510 39,700 660 Climbing Seattle Center
07:09PM 46.5031 -120.8342 122° Southeast 455 524 40,200 540 Climbing Seattle Center
07:10PM 46.4336 -120.6747 122° Southeast 464 534 40,800 360 Climbing Seattle Center
07:11PM 46.3631 -120.5131 122° Southeast 473 544 41,000 60 Climbing Seattle Center
07:13PM 46.2817 -120.3569 127° Southeast 483 556 41,000  Level Seattle Center
07:14PM 46.1914 -120.2103 132° Southeast 488 562 41,000  Level Seattle Center
07:15PM 46.1033 -120.0644 131° Southeast 485 558 41,000  Level Seattle Center
07:16PM 46.0147 -119.9228 132° Southeast 477 549 41,000  Level Seattle Center
07:17PM 45.9281 -119.7817 131° Southeast 474 545 41,000  Level Seattle Center
07:18PM 45.8417 -119.6428 132° Southeast 468 539 41,000  Level Seattle Center
07:19PM 45.7536 -119.5031 132° Southeast 469 540 41,000  Level Seattle Center
07:20PM 45.6661 -119.3642 132° Southeast 470 541 41,000  Level Seattle Center
07:21PM 45.5792 -119.2239 131° Southeast 470 541 41,000  Level Seattle Center
07:22PM 45.4914 -119.0858 132° Southeast 469 540 41,000  Level Seattle Center
07:23PM 45.4036 -118.9483 132° Southeast 469 540 41,000  Level Seattle Center
07:24PM 45.3153 -118.8119 133° Southeast 467 537 41,000  Level Seattle Center
07:25PM 45.2278 -118.6750 132° Southeast 467 537 41,000  Level Seattle Center
07:26PM 45.1231 -118.5131 132° Southeast 465 535 41,000  Level Seattle Center
07:27PM 45.0353 -118.3786 133° Southeast 464 534 41,000  Level Seattle Center
07:28PM 44.9464 -118.2453 133° Southeast 465 535 41,000  Level Seattle Center
07:29PM 44.8642 -118.1200 133° Southeast 464 534 41,000  Level Seattle Center
07:30PM 44.7661 -117.9708 133° Southeast 464 534 41,000  Level Seattle Center
07:31PM 44.6814 -117.8433 133° Southeast 465 535 41,000  Level Seattle Center
07:32PM 44.5978 -117.7172 133° Southeast 463 533 41,000  Level Seattle Center
07:33PM 44.5000 -117.5722 133° Southeast 460 529 41,000  Level Seattle Center
07:34PM 44.4158 -117.4475 133° Southeast 461 531 41,000  Level Seattle Center
07:35PM 44.3308 -117.3222 133° Southeast 463 533 41,000  Level Seattle Center
07:36PM 44.2181 -117.1564 133° Southeast 458 527 41,000  Level Salt Lake Center
07:37PM 44.1322 -117.0303 133° Southeast 467 537 41,000  Level Salt Lake Center
07:38PM 44.0314 -116.8828 134° Southeast 470 541 41,000 -600 Level Salt Lake Center
07:39PM 43.9494 -116.7628 133° Southeast 450 518 39,800 -1,620 Descending Salt Lake Center
07:40PM 43.8553 -116.6267 134° Southeast 439 505 37,800 -1,920 Descending Salt Lake Center
07:41PM 43.7719 -116.5081 134° Southeast 448 516 35,900 -1,860 Descending Salt Lake Center
07:42PM 43.6886 -116.3889 134° Southeast 453 521 34,000 -2,100 Descending Salt Lake Center
07:43PM 43.5972 -116.2381 130° Southeast 468 539 31,700 -2,100 Descending Salt Lake Center
07:44PM 43.5608 -116.0669 106° East 490 564 29,800 -2,040 Descending Salt Lake Center
07:45PM 43.5356 -115.8594 99° East 491 565 27,600 -2,040 Descending Salt Lake Center
07:46PM 43.5153 -115.6853 99° East 483 556 25,700 -1,860 Descending Salt Lake Center
07:47PM 43.4942 -115.5167 100° East 470 541 23,800 -2,100 Descending Salt Lake Center
07:48PM 43.4706 -115.3258 100° East 455 524 21,500 -2,160 Descending Salt Lake Center
07:49PM 43.4494 -115.1578 100° East 443 510 19,400 -2,040 Descending Salt Lake Center
07:50PM 43.4281 -114.9875 100° East 433 498 17,400 -2,040 Descending Salt Lake Center
07:51PM 43.4067 -114.8247 100° East 417 480 15,300 -1,260 Descending Salt Lake Center
07:52PM 43.3886 -114.6811 100° East 403 464 14,900 -720 Descending Salt Lake Center
07:53PM 43.3692 -114.5364 100° East 375 432 13,900 -900 Descending Salt Lake Center
07:54PM 43.3536 -114.4231 101° East 284 327 13,100 -1,140 Descending Salt Lake Center
07:55PM 43.3425 -114.3322 100° East 255 293 11,600 -1,140 Descending Salt Lake Center
07:56PM 43.3292 -114.2439 102° East 251 289 10,900 -720 Descending Salt Lake Center
07:58PM 43.4412 -114.2703 351° North  Level FlightAware Approximate
08:05PM 43.5000 -114.2833 351° North  Level FlightAware Approximate
08:06PM 43.5038 -114.2956 351° North  Level Estimated
08:07PM 43.5038 -114.2956 351° North  Level Estimated
08:08PM 43.5038 -114.2956 351° North  Level Estimated